Time;durP1;ratioP1;P1;durP2;ratioP2;P2;SDS_P1;SDS_P2;PMS_P1;PMS_P2;Temp;Humidity;BMP_temperature;BMP_pressure;BME280_temperature;BME280_humidity;BME280_pressure;Samples;Min_cycle;Max_cycle;Signal;HPM_P1;HPM_P2
2022/01/18 00:00:45;;;;;;;1.30;1.20;;;;;;;2.99;100.00;94624.13;5054012;28;20724;-62
2022/01/18 00:03:11;;;;;;;0.80;0.80;;;;;;;3.01;100.00;94632.38;5072025;28;20188;-63
2022/01/18 00:05:37;;;;;;;1.17;0.93;;;;;;;2.89;100.00;94641.38;5071940;28;20262;-59
2022/01/18 00:08:03;;;;;;;1.17;1.00;;;;;;;2.90;100.00;94627.13;5072007;28;20227;-62
2022/01/18 00:10:31;;;;;;;1.17;1.00;;;;;;;2.91;100.00;94621.22;5072126;28;20201;-62
2022/01/18 00:15:38;;;;;;;1.03;0.93;;;;;;;2.80;100.00;94631.03;5096891;22;20220;-64
2022/01/18 00:23:20;;;;;;;3.40;2.50;;;;;;;2.82;100.00;94639.28;5092310;28;20180;-63
2022/01/18 00:25:50;;;;;;;2.20;1.30;;;;;;;2.88;100.00;94651.50;5091863;28;20291;-64
2022/01/18 00:28:16;;;;;;;2.17;1.60;;;;;;;2.86;100.00;94641.56;5092042;28;20190;-61
2022/01/18 00:33:42;;;;;;;2.63;1.80;;;;;;;2.95;100.00;94620.94;5092290;28;20278;-60
2022/01/18 00:36:21;;;;;;;2.30;1.40;;;;;;;2.94;100.00;94624.38;5099326;22;20224;-60
2022/01/18 00:38:48;;;;;;;1.70;1.50;;;;;;;2.93;100.00;94620.22;5091636;28;20567;-61
2022/01/18 00:41:16;;;;;;;1.47;1.33;;;;;;;2.91;100.00;94599.41;5091665;28;20191;-62
2022/01/18 00:43:43;;;;;;;7.87;1.40;;;;;;;2.95;100.00;94636.00;5091568;28;20245;-59
2022/01/18 00:46:11;;;;;;;2.27;1.77;;;;;;;2.94;100.00;94621.03;5092149;28;20212;-63
2022/01/18 00:48:37;;;;;;;3.03;1.57;;;;;;;2.95;100.00;94653.56;5091615;28;20663;-64
2022/01/18 00:51:05;;;;;;;2.63;1.70;;;;;;;2.95;100.00;94652.78;5073685;28;20295;-62
2022/01/18 00:53:34;;;;;;;2.47;1.87;;;;;;;2.96;99.29;94661.94;5091578;28;20247;-60
2022/01/18 00:58:42;;;;;;;3.37;2.17;;;;;;;2.93;97.95;94702.28;5091444;28;20306;-62
2022/01/18 01:01:09;;;;;;;5.53;1.70;;;;;;;2.91;98.11;94689.78;5073365;28;20299;-59
2022/01/18 01:03:35;;;;;;;3.60;2.07;;;;;;;2.97;97.79;94713.78;5091282;28;20176;-61
2022/01/18 01:06:01;;;;;;;2.57;1.90;;;;;;;2.99;98.27;94711.97;5091940;28;20225;-62
2022/01/18 01:08:27;;;;;;;4.53;2.43;;;;;;;2.95;98.07;94741.44;5091369;28;20173;-62
2022/01/18 01:10:53;;;;;;;2.90;1.90;;;;;;;2.95;99.99;94726.38;5091452;28;20201;-63
2022/01/18 01:13:18;;;;;;;2.90;2.30;;;;;;;2.96;100.00;94723.00;5091388;28;20623;-63
2022/01/18 01:16:01;;;;;;;4.37;2.17;;;;;;;2.70;100.00;94737.81;5091918;28;20204;-64
2022/01/18 01:45:07;;;;;;;4.03;1.97;;;;;;;1.42;100.00;94775.25;5095263;28;20670;-62
2022/01/18 01:47:37;;;;;;;2.77;1.50;;;;;;;1.46;100.00;94777.53;5094720;28;20188;-64
2022/01/18 01:50:05;;;;;;;1.87;1.50;;;;;;;1.46;100.00;94791.75;5076337;28;20246;-63
2022/01/18 01:52:30;;;;;;;2.27;2.00;;;;;;;1.46;100.00;94801.75;5076390;28;20168;-61
2022/01/18 01:54:56;;;;;;;2.97;2.07;;;;;;;1.46;100.00;94802.59;5094467;28;20199;-63
2022/01/18 01:57:21;;;;;;;2.77;2.10;;;;;;;1.65;100.00;94812.53;5094544;28;20230;-60
2022/01/18 01:59:48;;;;;;;3.53;2.20;;;;;;;1.57;100.00;94817.09;5094814;28;20211;-61
2022/01/18 02:02:14;;;;;;;3.20;2.87;;;;;;;1.48;100.00;94818.34;5094488;28;20241;-66
2022/01/18 02:04:40;;;;;;;3.67;2.10;;;;;;;1.53;100.00;94823.16;5094653;28;20657;-60
2022/01/18 02:07:06;;;;;;;4.53;2.83;;;;;;;1.47;100.00;94819.25;5094563;28;20181;-61
2022/01/18 02:09:31;;;;;;;2.50;1.87;;;;;;;1.38;100.00;94811.31;5076047;28;20563;-62
2022/01/18 02:11:59;;;;;;;2.10;1.90;;;;;;;1.46;100.00;94806.78;5094534;28;20191;-59
2022/01/18 02:14:25;;;;;;;2.37;1.90;;;;;;;1.42;100.00;94813.63;5094460;28;20190;-62
2022/01/18 02:22:19;;;;;;;1.37;1.20;;;;;;;1.28;100.00;94893.56;5094564;28;20660;-61
2022/01/18 02:24:45;;;;;;;1.13;1.00;;;;;;;1.20;100.00;94880.59;5093927;28;20196;-62
2022/01/18 02:27:11;;;;;;;1.23;1.00;;;;;;;1.24;100.00;94894.59;5075916;28;20238;-63
2022/01/18 02:29:37;;;;;;;1.17;0.83;;;;;;;1.15;100.00;94937.53;5094206;28;20199;-57
2022/01/18 02:32:03;;;;;;;0.77;0.63;;;;;;;1.05;100.00;94938.03;5093829;28;20645;-62
2022/01/18 02:34:29;;;;;;;1.70;1.10;;;;;;;0.95;100.00;94969.34;5075613;28;20270;-63
2022/01/18 02:36:57;;;;;;;1.13;0.80;;;;;;;0.89;100.00;94992.13;5093492;28;20252;-58
2022/01/18 02:39:29;;;;;;;0.90;0.80;;;;;;;0.82;100.00;94959.03;5093637;28;20216;-63
2022/01/18 02:42:03;;;;;;;0.73;0.73;;;;;;;0.72;100.00;94982.81;5075480;28;20180;-63
2022/01/18 02:44:30;;;;;;;1.03;0.73;;;;;;;0.71;98.66;94986.97;5093783;28;20180;-62
2022/01/18 02:46:57;;;;;;;1.40;1.07;;;;;;;0.64;97.20;94999.81;5093715;28;20175;-62
2022/01/18 02:49:22;;;;;;;1.20;0.80;;;;;;;0.60;96.72;95011.63;5093614;28;20188;-59
2022/01/18 02:51:50;;;;;;;2.63;1.53;;;;;;;0.53;95.63;95030.25;5093777;28;20233;-62
2022/01/18 02:54:17;;;;;;;3.40;0.70;;;;;;;0.52;95.70;95028.66;5093568;28;20270;-63
2022/01/18 02:56:52;;;;;;;1.20;0.63;;;;;;;0.47;95.59;95003.00;5093589;28;20179;-62
2022/01/18 02:59:34;;;;;;;0.90;0.50;;;;;;;0.37;94.45;95021.72;5093332;28;20216;-61
2022/01/18 03:04:46;;;;;;;3.20;0.93;;;;;;;0.33;93.12;95039.41;5093860;28;20292;-63
2022/01/18 03:07:12;;;;;;;0.77;0.70;;;;;;;0.29;91.91;95052.91;5093183;28;20183;-58
2022/01/18 03:09:38;;;;;;;4.27;0.83;;;;;;;0.26;94.46;95008.03;5093358;28;20316;-63
2022/01/18 03:12:05;;;;;;;0.40;0.40;;;;;;;0.20;92.09;95064.09;5093045;28;20175;-61
2022/01/18 03:14:30;;;;;;;0.60;0.60;;;;;;;0.20;92.78;95044.09;5093377;28;20732;-64
2022/01/18 03:16:56;;;;;;;5.33;1.43;;;;;;;0.16;92.46;95049.25;5093283;28;20211;-60
2022/01/18 03:19:22;;;;;;;0.90;0.70;;;;;;;0.10;92.97;95042.00;5092861;28;20230;-62
2022/01/18 03:21:49;;;;;;;2.00;0.87;;;;;;;0.05;91.04;95088.81;5093096;28;20256;-62
2022/01/18 03:24:44;;;;;;;0.40;0.40;;;;;;;0.05;91.78;95059.66;5092922;28;20183;-63
2022/01/18 03:29:50;;;;;;;1.33;0.90;;;;;;;-0.05;92.33;95075.88;5093100;28;20217;-64
2022/01/18 03:32:16;;;;;;;1.53;1.07;;;;;;;-0.05;91.24;95109.16;5092919;28;20183;-63
2022/01/18 03:34:41;;;;;;;1.27;0.87;;;;;;;-0.06;90.35;95125.00;5092468;28;20208;-60
2022/01/18 03:37:07;;;;;;;0.63;0.60;;;;;;;-0.10;90.83;95126.00;5057857;28;20221;-62
2022/01/18 03:39:32;;;;;;;0.93;0.53;;;;;;;-0.10;90.86;95105.19;5074235;28;20615;-60
2022/01/18 03:42:22;;;;;;;3.03;1.30;;;;;;;-0.06;90.23;95141.66;5092638;28;20187;-62
2022/01/18 03:44:45;;;;;;;1.97;0.90;;;;;;;-0.10;90.67;95145.97;5092541;28;20678;-60
2022/01/18 03:47:12;;;;;;;2.97;1.10;;;;;;;-0.14;90.82;95119.47;5092836;28;20567;-63
2022/01/18 03:49:38;;;;;;;2.10;1.30;;;;;;;-0.12;90.32;95137.72;5073357;28;20577;-61
2022/01/18 03:52:04;;;;;;;2.63;1.23;;;;;;;-0.18;90.60;95132.94;5092319;28;20187;-62
2022/01/18 03:54:29;;;;;;;2.90;0.90;;;;;;;-0.18;90.96;95132.94;5074116;28;20182;-65
2022/01/18 03:56:55;;;;;;;2.83;1.17;;;;;;;-0.16;90.71;95137.88;5074407;28;20213;-64
2022/01/18 03:59:20;;;;;;;1.20;0.97;;;;;;;-0.16;91.00;95145.38;5092002;28;20213;-62
2022/01/18 04:01:45;;;;;;;1.67;1.30;;;;;;;-0.19;89.63;95193.78;5073954;28;20172;-63
2022/01/18 04:04:11;;;;;;;2.40;1.23;;;;;;;-0.22;90.59;95166.38;5092299;28;20573;-62
2022/01/18 04:06:36;;;;;;;1.63;0.80;;;;;;;-0.23;90.75;95162.28;5092068;28;20203;-62
2022/01/18 04:09:02;;;;;;;2.43;0.90;;;;;;;-0.23;89.69;95189.75;5074507;28;20190;-60
2022/01/18 04:11:28;;;;;;;2.73;1.17;;;;;;;-0.22;89.63;95195.53;5073819;28;20261;-62
2022/01/18 04:13:53;;;;;;;0.70;0.70;;;;;;;-0.23;90.57;95189.75;5092140;28;20323;-63
2022/01/18 04:16:19;;;;;;;1.30;0.90;;;;;;;-0.27;89.92;95194.91;5091951;28;20687;-61
2022/01/18 04:26:56;;;;;;;1.53;0.83;;;;;;;-0.32;89.54;95219.19;5060333;28;20312;-62
2022/01/18 04:29:22;;;;;;;2.50;0.90;;;;;;;-0.36;90.05;95230.97;5073758;28;20195;-62
2022/01/18 04:32:06;;;;;;;2.57;1.00;;;;;;;-0.33;90.01;95237.56;5073757;28;20183;-62
2022/01/18 04:34:32;;;;;;;1.90;1.27;;;;;;;-0.37;90.37;95221.88;5073573;28;20182;-64
2022/01/18 04:36:57;;;;;;;1.13;0.97;;;;;;;-0.34;89.58;95246.72;5073585;28;20186;-65
2022/01/18 04:39:23;;;;;;;0.80;0.70;;;;;;;-0.34;89.45;95245.91;5091836;28;20264;-63
2022/01/18 04:41:48;;;;;;;2.23;1.10;;;;;;;-0.34;89.66;95256.72;5091914;28;20223;-64
2022/01/18 04:49:51;;;;;;;1.60;1.00;;;;;;;-0.41;89.67;95269.47;5091779;28;20219;-66
2022/01/18 04:52:17;;;;;;;0.70;0.70;;;;;;;-0.40;89.86;95278.56;5091747;28;20184;-65
2022/01/18 04:54:45;;;;;;;1.37;1.00;;;;;;;-0.34;89.41;95290.84;5091589;28;20781;-61
2022/01/18 04:59:37;;;;;;;0.93;0.80;;;;;;;-0.35;88.66;95315.03;5091338;28;20220;-63
2022/01/18 05:02:03;;;;;;;1.70;1.07;;;;;;;-0.37;88.02;95315.94;5076221;28;20329;-64
2022/01/18 05:04:29;;;;;;;4.27;1.50;;;;;;;-0.35;88.18;95314.22;5095559;28;20189;-60
2022/01/18 05:06:59;;;;;;;2.73;1.10;;;;;;;-0.36;88.58;95312.56;5095431;28;20267;-64
2022/01/18 05:09:25;;;;;;;4.87;1.40;;;;;;;-0.32;88.09;95314.09;5077140;28;20667;-61
2022/01/18 05:11:58;;;;;;;1.73;0.57;;;;;;;-0.39;88.69;95321.00;5095449;28;20179;-63
2022/01/18 05:14:30;;;;;;;4.30;1.17;;;;;;;-0.37;89.47;95289.28;5077210;28;20184;-60
2022/01/18 05:17:33;;;;;;;1.47;1.20;;;;;;;-0.39;89.93;95288.53;5095344;28;20167;-64
2022/01/18 05:20:25;;;;;;;2.70;1.00;;;;;;;-0.34;88.31;95331.63;5095290;28;20537;-61
2022/01/18 05:23:00;;;;;;;1.97;1.30;;;;;;;-0.30;88.92;95327.34;5094311;28;20670;-66
2022/01/18 05:25:28;;;;;;;2.77;1.10;;;;;;;-0.30;88.66;95338.16;5095619;28;20290;-63
2022/01/18 05:27:53;;;;;;;1.47;1.00;;;;;;;-0.36;88.96;95332.53;5095175;28;20171;-60
2022/01/18 05:30:19;;;;;;;1.70;1.03;;;;;;;-0.32;89.87;95322.41;5095140;28;20209;-66
2022/01/18 05:32:44;;;;;;;1.70;1.10;;;;;;;-0.32;89.33;95329.91;5077193;28;20174;-63
2022/01/18 05:35:10;;;;;;;2.47;1.30;;;;;;;-0.35;90.25;95310.03;5095597;28;20217;-64
2022/01/18 05:37:35;;;;;;;1.60;0.90;;;;;;;-0.27;89.43;95313.09;5095085;28;20193;-66
2022/01/18 05:40:01;;;;;;;2.03;1.20;;;;;;;-0.28;90.01;95336.44;5095240;28;20575;-63
2022/01/18 05:42:26;;;;;;;1.57;1.17;;;;;;;-0.37;89.71;95339.22;5076818;28;20216;-64
2022/01/18 05:44:52;;;;;;;3.10;1.40;;;;;;;-0.27;90.12;95334.75;5094757;28;20206;-65
2022/01/18 05:47:17;;;;;;;2.90;1.00;;;;;;;-0.19;90.89;95338.66;5075872;28;20195;-63
2022/01/18 05:49:43;;;;;;;1.87;1.10;;;;;;;-0.24;89.47;95360.44;5095376;28;20203;-66
2022/01/18 05:52:08;;;;;;;1.13;1.00;;;;;;;-0.24;90.19;95347.97;5076752;28;20183;-67
2022/01/18 05:54:34;;;;;;;3.10;1.20;;;;;;;-0.19;90.60;95341.16;5094878;28;20193;-63
2022/01/18 05:57:01;;;;;;;1.73;1.00;;;;;;;-0.37;90.34;95344.22;5094981;28;20179;-65
2022/01/18 05:59:37;;;;;;;3.63;1.43;;;;;;;-0.28;90.32;95358.09;5076718;28;20224;-66
2022/01/18 06:02:14;;;;;;;1.07;0.90;;;;;;;-0.35;90.96;95351.66;5077139;28;20256;-61
2022/01/18 06:07:24;;;;;;;6.40;1.70;;;;;;;-0.30;90.97;95367.31;5095272;28;20520;-66
2022/01/18 06:09:50;;;;;;;4.30;1.77;;;;;;;-0.29;90.48;95364.78;5094709;28;20210;-67
2022/01/18 06:12:16;;;;;;;5.13;1.60;;;;;;;-0.30;91.48;95363.13;5076148;28;20178;-65
2022/01/18 06:14:43;;;;;;;2.80;1.50;;;;;;;-0.35;91.24;95372.47;5094934;28;20205;-67
2022/01/18 06:17:09;;;;;;;3.17;1.43;;;;;;;-0.34;91.26;95359.09;5076889;28;20664;-63
2022/01/18 06:19:35;;;;;;;4.63;1.50;;;;;;;-0.38;91.48;95390.03;5094722;28;20363;-62
2022/01/18 06:22:01;;;;;;;3.57;2.13;;;;;;;-0.39;91.43;95363.44;5076502;28;20311;-63
2022/01/18 06:24:29;;;;;;;2.90;1.37;;;;;;;-0.46;91.04;95379.47;5094356;28;20183;-63
2022/01/18 06:26:58;;;;;;;2.10;1.60;;;;;;;-0.39;91.24;95372.59;5076120;28;20181;-61
2022/01/18 06:29:23;;;;;;;2.80;1.70;;;;;;;-0.46;91.78;95354.50;5076137;28;20267;-65
2022/01/18 06:31:57;;;;;;;2.33;1.30;;;;;;;-0.41;92.27;95342.69;5094398;28;20218;-66
2022/01/18 06:34:22;;;;;;;4.13;2.07;;;;;;;-0.44;92.03;95349.44;5076341;28;20201;-65
2022/01/18 06:36:48;;;;;;;2.13;1.30;;;;;;;-0.46;92.17;95347.00;5094296;28;20182;-62
2022/01/18 06:39:21;;;;;;;2.40;1.30;;;;;;;-0.42;91.70;95357.69;5094178;28;20646;-62
2022/01/18 06:41:50;;;;;;;1.77;1.23;;;;;;;-0.38;92.05;95354.25;5094718;28;20209;-65
2022/01/18 06:44:17;;;;;;;2.27;1.63;;;;;;;-0.49;92.17;95332.13;5048050;22;20215;-66
2022/01/18 06:46:43;;;;;;;1.90;1.03;;;;;;;-0.38;92.23;95350.06;5036397;28;20616;-64
2022/01/18 06:49:08;;;;;;;2.07;1.50;;;;;;;-0.34;91.73;95344.13;5053842;28;20199;-65
2022/01/18 06:51:35;;;;;;;3.63;2.23;;;;;;;-0.37;92.11;95331.75;5054136;28;20193;-66
2022/01/18 06:54:00;;;;;;;2.47;1.63;;;;;;;-0.32;91.80;95359.88;5053562;28;20189;-62
2022/01/18 06:56:26;;;;;;;2.47;1.40;;;;;;;-0.25;91.86;95351.34;5053963;28;20197;-62
2022/01/18 06:58:53;;;;;;;2.67;1.87;;;;;;;-0.26;91.72;95369.66;5036136;28;20298;-62
2022/01/18 07:01:19;;;;;;;4.37;2.10;;;;;;;-0.17;91.30;95376.88;5035488;28;20295;-61
2022/01/18 07:03:47;;;;;;;3.57;1.80;;;;;;;-0.09;91.59;95366.63;5053521;28;20181;-64
2022/01/18 07:06:12;;;;;;;4.40;1.80;;;;;;;-0.10;91.12;95403.28;5053511;28;20221;-60
2022/01/18 07:08:38;;;;;;;2.53;1.30;;;;;;;-0.14;91.72;95391.75;5053762;28;20226;-62
2022/01/18 07:11:05;;;;;;;2.33;1.50;;;;;;;-0.08;91.49;95399.06;5035791;28;20216;-62
2022/01/18 07:13:31;;;;;;;1.77;1.23;;;;;;;-0.11;91.38;95411.66;5053092;28;20374;-63
2022/01/18 07:15:57;;;;;;;2.70;1.40;;;;;;;-0.14;91.12;95424.22;5053284;28;20223;-63
2022/01/18 07:18:23;;;;;;;3.57;1.77;;;;;;;-0.14;91.79;95409.25;5035577;28;20325;-62
2022/01/18 07:20:48;;;;;;;2.30;1.50;;;;;;;-0.09;91.62;95419.94;5053210;28;20203;-65
2022/01/18 07:23:14;;;;;;;4.97;2.20;;;;;;;-0.05;90.85;95448.94;5052395;28;20181;-59
2022/01/18 07:25:43;;;;;;;2.07;1.83;;;;;;;-0.12;90.78;95451.66;5050601;28;20192;-63
2022/01/18 07:28:10;;;;;;;3.83;1.60;;;;;;;0.03;91.51;95435.38;5034599;28;20274;-64
2022/01/18 07:30:36;;;;;;;4.10;1.40;;;;;;;0.09;91.18;95451.00;5035401;28;20712;-65
2022/01/18 07:33:02;;;;;;;1.43;1.10;;;;;;;0.02;91.02;95456.25;5052795;28;20185;-65
2022/01/18 07:35:28;;;;;;;1.77;1.43;;;;;;;0.08;90.40;95473.56;5034869;28;20208;-66
2022/01/18 07:37:54;;;;;;;2.57;1.53;;;;;;;0.13;90.53;95461.72;5034801;28;20300;-65
2022/01/18 07:40:19;;;;;;;1.30;1.20;;;;;;;0.12;90.46;95450.94;5034852;28;20204;-65
2022/01/18 07:42:45;;;;;;;2.00;1.50;;;;;;;0.22;90.62;95467.25;5052696;28;20207;-62
2022/01/18 07:45:11;;;;;;;2.83;1.90;;;;;;;0.45;90.02;95479.00;5052602;28;20629;-63
2022/01/18 07:47:36;;;;;;;1.93;1.43;;;;;;;0.36;88.79;95496.81;5052668;28;20181;-65
2022/01/18 07:50:03;;;;;;;2.27;1.73;;;;;;;0.41;88.99;95499.97;5034692;28;20662;-66
2022/01/18 07:52:32;;;;;;;2.27;1.53;;;;;;;0.52;88.69;95512.97;5052682;28;20719;-64
2022/01/18 07:54:57;;;;;;;4.43;1.60;;;;;;;0.65;88.76;95512.50;5052188;28;20262;-66
2022/01/18 07:57:23;;;;;;;2.77;1.50;;;;;;;0.82;87.88;95527.81;5051975;28;20185;-65
2022/01/18 07:59:48;;;;;;;2.80;1.47;;;;;;;0.64;88.12;95530.91;5051810;28;20206;-65
2022/01/18 08:02:14;;;;;;;3.40;1.70;;;;;;;0.67;88.31;95515.78;5051757;28;20663;-65
2022/01/18 08:04:39;;;;;;;3.10;1.70;;;;;;;0.77;88.25;95516.28;5034017;28;20698;-66
2022/01/18 08:07:05;;;;;;;3.83;1.60;;;;;;;0.82;88.04;95539.50;5051727;28;20193;-65
2022/01/18 08:09:34;;;;;;;3.50;1.40;;;;;;;0.76;88.46;95524.69;5052207;28;20180;-65
2022/01/18 08:12:00;;;;;;;2.33;1.80;;;;;;;0.85;88.80;95517.66;5034306;28;20185;-67
2022/01/18 08:14:29;;;;;;;3.67;1.57;;;;;;;0.87;88.08;95535.13;5051855;28;20184;-65
2022/01/18 08:17:00;;;;;;;1.83;1.57;;;;;;;1.05;87.87;95532.00;5052271;28;20191;-61
2022/01/18 08:19:30;;;;;;;3.00;1.67;;;;;;;1.34;86.73;95568.59;5051774;28;20194;-64
2022/01/18 08:21:56;;;;;;;3.20;1.50;;;;;;;1.21;85.80;95579.91;5051852;28;20204;-65
2022/01/18 08:24:22;;;;;;;2.40;1.33;;;;;;;1.26;86.40;95578.88;5051945;28;20265;-60
2022/01/18 08:26:48;;;;;;;3.37;1.80;;;;;;;1.76;85.55;95594.63;5051563;28;20180;-62
2022/01/18 08:29:14;;;;;;;3.00;1.90;;;;;;;2.08;84.15;95628.59;5071395;23;20214;-58
2022/01/18 08:31:40;;;;;;;2.90;1.70;;;;;;;1.77;83.27;95646.41;5071609;28;20197;-63
2022/01/18 08:34:06;;;;;;;1.30;1.20;;;;;;;1.60;82.81;95644.47;5071482;28;20189;-64
2022/01/18 08:36:31;;;;;;;2.60;1.30;;;;;;;1.63;83.22;95626.84;5071157;28;20270;-65
2022/01/18 08:38:57;;;;;;;2.03;1.30;;;;;;;1.47;82.15;95649.97;5071938;28;20306;-65
2022/01/18 08:41:22;;;;;;;3.00;1.40;;;;;;;1.66;82.62;95655.97;5071647;28;20211;-63
2022/01/18 08:43:49;;;;;;;1.20;1.10;;;;;;;1.53;82.25;95650.59;5071969;28;20181;-65
2022/01/18 08:46:15;;;;;;;2.37;1.53;;;;;;;1.71;81.77;95661.66;5071454;28;20283;-66
2022/01/18 08:48:42;;;;;;;7.00;1.73;;;;;;;1.78;81.88;95664.78;5071657;28;20238;-64
2022/01/18 08:51:08;;;;;;;2.43;1.60;;;;;;;2.08;80.51;95717.16;5070209;28;20212;-64
2022/01/18 08:53:35;;;;;;;1.60;1.20;;;;;;;2.21;80.58;95675.75;5071795;28;20641;-64
2022/01/18 08:56:01;;;;;;;2.20;1.33;;;;;;;2.41;77.62;95740.25;5070304;28;20634;-66
2022/01/18 08:58:27;;;;;;;2.43;1.70;;;;;;;2.42;73.63;95705.06;5070469;28;20590;-61
2022/01/18 09:00:53;;;;;;;2.33;1.50;;;;;;;2.95;70.89;95733.19;5071446;28;20202;-62
2022/01/18 09:03:19;;;;;;;2.77;1.30;;;;;;;2.60;69.62;95773.84;5071616;28;20195;-65
2022/01/18 09:05:46;;;;;;;1.00;1.00;;;;;;;2.33;71.00;95714.59;5071316;28;20196;-62
2022/01/18 09:08:13;;;;;;;2.47;1.70;;;;;;;2.22;70.23;95709.16;5064842;22;20260;-65
2022/01/18 09:10:44;;;;;;;1.90;1.30;;;;;;;2.38;70.44;95705.25;5051250;28;20563;-59
2022/01/18 09:13:09;;;;;;;4.60;1.70;;;;;;;2.48;70.30;95694.00;5051870;28;20196;-61
2022/01/18 09:15:35;;;;;;;4.67;1.40;;;;;;;2.68;71.69;95681.53;5051210;28;20567;-63
2022/01/18 09:18:00;;;;;;;2.30;1.53;;;;;;;2.51;68.48;95711.44;5033373;28;20224;-64
2022/01/18 09:20:26;;;;;;;5.90;1.63;;;;;;;2.61;67.35;95701.91;5051092;28;20214;-64
2022/01/18 09:22:54;;;;;;;3.43;1.63;;;;;;;3.04;66.08;95729.50;5051682;28;20188;-67
2022/01/18 09:25:26;;;;;;;2.20;1.20;;;;;;;2.93;66.00;95737.44;5034199;28;20267;-62
2022/01/18 09:27:53;;;;;;;2.90;1.40;;;;;;;3.39;65.22;95739.81;5051784;28;20190;-62
2022/01/18 09:30:19;;;;;;;3.30;1.63;;;;;;;3.87;65.38;95747.09;5050935;28;20204;-66
2022/01/18 09:32:46;;;;;;;6.07;1.57;;;;;;;4.02;64.44;95758.25;5050963;28;20192;-67
2022/01/18 09:35:14;;;;;;;4.53;1.50;;;;;;;4.25;64.55;95746.31;5050948;28;20199;-63
2022/01/18 09:37:39;;;;;;;2.67;1.40;;;;;;;3.47;63.32;95738.72;5033155;28;20272;-62
2022/01/18 09:40:06;;;;;;;4.17;1.93;;;;;;;3.30;65.11;95707.53;5051160;28;20292;-64
2022/01/18 09:42:38;;;;;;;4.57;1.43;;;;;;;2.94;65.31;95695.59;5051299;28;20190;-65
2022/01/18 09:45:07;;;;;;;3.03;1.50;;;;;;;3.14;65.65;95686.41;5050689;28;20193;-62
2022/01/18 09:47:39;;;;;;;3.60;1.77;;;;;;;3.26;66.21;95685.09;5052376;28;20192;-64
2022/01/18 09:50:07;;;;;;;3.30;2.17;;;;;;;3.84;64.73;95711.19;5054948;28;20630;-65
2022/01/18 09:52:34;;;;;;;4.70;1.67;;;;;;;4.46;63.84;95726.97;5036850;28;20479;-64
2022/01/18 09:54:59;;;;;;;2.13;1.50;;;;;;;4.79;61.61;95783.38;5036489;28;20210;-64
2022/01/18 09:57:25;;;;;;;3.07;1.73;;;;;;;4.02;61.30;95743.16;5054956;28;20693;-62
2022/01/18 09:59:51;;;;;;;3.83;1.67;;;;;;;4.17;61.95;95733.25;5036428;28;20225;-65
2022/01/18 10:02:17;;;;;;;3.77;1.70;;;;;;;4.37;60.78;95756.72;5036631;28;20270;-63
2022/01/18 10:04:44;;;;;;;2.13;1.23;;;;;;;3.98;61.60;95726.53;5054055;28;20254;-65
2022/01/18 10:07:10;;;;;;;4.50;1.37;;;;;;;3.57;63.57;95699.78;5054112;28;20202;-65
2022/01/18 10:09:37;;;;;;;3.60;1.80;;;;;;;3.37;64.16;95673.72;5053996;28;20275;-65
2022/01/18 10:12:06;;;;;;;3.93;1.60;;;;;;;3.17;64.18;95648.59;5054430;28;20245;-59
2022/01/18 10:14:35;;;;;;;4.33;1.40;;;;;;;3.00;64.21;95668.56;5054401;28;20189;-63
2022/01/18 10:17:02;;;;;;;3.90;1.40;;;;;;;3.11;64.67;95643.81;5036649;28;20284;-63
2022/01/18 10:19:42;;;;;;;2.97;1.33;;;;;;;2.88;66.51;95631.38;5054074;28;20276;-63
2022/01/18 10:22:17;;;;;;;2.97;1.57;;;;;;;3.32;65.71;95630.41;5054363;28;20185;-63
2022/01/18 10:24:43;;;;;;;3.03;1.70;;;;;;;3.16;64.80;95653.69;5053841;28;20224;-62
2022/01/18 10:27:10;;;;;;;5.37;1.47;;;;;;;3.30;64.81;95652.25;5054000;28;20189;-63
2022/01/18 10:29:46;;;;;;;4.03;1.70;;;;;;;3.12;64.08;95653.00;5035948;28;20219;-61
2022/01/18 10:32:23;;;;;;;5.90;1.60;;;;;;;3.26;63.36;95672.53;5035960;28;20189;-62
2022/01/18 10:37:18;;;;;;;1.87;1.20;;;;;;;3.61;62.71;95693.72;5053557;28;20192;-64
2022/01/18 10:39:48;;;;;;;2.17;1.67;;;;;;;3.76;62.22;95678.81;5035148;28;20749;-62
2022/01/18 10:42:18;;;;;;;2.03;1.60;;;;;;;3.92;62.89;95679.81;5053485;28;20640;-64
2022/01/18 10:45:04;;;;;;;7.10;2.03;;;;;;;3.71;60.73;95707.56;5035467;28;20296;-64
2022/01/18 10:47:32;;;;;;;2.07;1.20;;;;;;;3.34;62.95;95653.78;5053056;28;20212;-62
2022/01/18 10:50:09;;;;;;;3.23;1.60;;;;;;;3.60;62.66;95679.50;5034740;28;20205;-62
2022/01/18 10:52:35;;;;;;;2.93;1.97;;;;;;;3.28;64.23;95623.88;5053709;28;20635;-63
2022/01/18 10:55:01;;;;;;;2.27;1.50;;;;;;;3.37;61.32;95698.84;5077326;22;20233;-64
2022/01/18 10:57:30;;;;;;;2.77;1.63;;;;;;;3.29;61.50;95685.00;5073302;28;20188;-64
2022/01/18 11:00:08;;;;;;;4.93;1.60;;;;;;;3.20;61.54;95696.22;5072572;28;20271;-65
2022/01/18 11:02:39;;;;;;;2.17;1.43;;;;;;;3.04;62.01;95654.19;5072895;28;20187;-63
2022/01/18 11:05:17;;;;;;;2.07;1.27;;;;;;;3.17;61.96;95656.13;5073561;28;20692;-59
2022/01/18 11:07:44;;;;;;;4.40;1.63;;;;;;;3.03;61.36;95650.84;5073014;28;20184;-65
2022/01/18 11:10:11;;;;;;;4.87;1.90;;;;;;;3.28;61.90;95658.22;5072452;28;20582;-63
2022/01/18 11:12:57;;;;;;;5.00;1.60;;;;;;;3.24;61.37;95656.72;5054760;28;20642;-65
2022/01/18 11:15:26;;;;;;;2.77;1.30;;;;;;;3.04;60.80;95671.75;5054723;28;20213;-63
2022/01/18 11:17:59;;;;;;;2.30;1.60;;;;;;;3.47;61.26;95658.28;5072350;28;20181;-62
2022/01/18 11:20:36;;;;;;;3.90;2.03;;;;;;;3.46;59.46;95699.38;5052735;28;20197;-61
2022/01/18 11:23:06;;;;;;;3.07;1.90;;;;;;;3.08;59.37;95675.78;5071359;28;20242;-62
2022/01/18 11:25:36;;;;;;;4.33;2.20;;;;;;;3.15;60.69;95679.69;5072648;28;20203;-61
2022/01/18 11:28:03;;;;;;;2.23;1.53;;;;;;;3.06;59.98;95675.84;5072680;28;20220;-63
2022/01/18 11:30:34;;;;;;;4.13;2.30;;;;;;;2.94;59.43;95681.34;5072656;28;20192;-62
2022/01/18 11:33:04;;;;;;;3.20;1.50;;;;;;;2.76;59.77;95684.56;5072571;28;20169;-64
2022/01/18 11:35:56;;;;;;;1.80;1.13;;;;;;;2.75;59.84;95682.91;5072624;28;20283;-66
2022/01/18 11:38:42;;;;;;;4.30;1.40;;;;;;;2.96;60.26;95654.47;5072557;28;20219;-61
2022/01/18 11:41:27;;;;;;;7.13;2.00;;;;;;;3.41;59.94;95667.69;5071847;28;20286;-62
2022/01/18 11:43:55;;;;;;;2.60;1.47;;;;;;;3.08;59.03;95715.97;5075637;22;20681;-59
2022/01/18 11:46:31;;;;;;;1.67;1.10;;;;;;;3.08;58.86;95721.00;5072446;28;20220;-60
2022/01/18 11:49:09;;;;;;;2.77;1.20;;;;;;;2.91;57.72;95719.13;5072278;28;20169;-60
2022/01/18 11:51:40;;;;;;;2.67;1.40;;;;;;;3.27;56.75;95742.03;5072551;28;20219;-60
2022/01/18 11:57:21;;;;;;;6.60;1.20;;;;;;;3.28;57.09;95728.56;5072682;28;20185;-60
2022/01/18 11:59:48;;;;;;;2.17;1.40;;;;;;;3.50;55.78;95741.09;5072211;28;20321;-61
2022/01/18 12:02:26;;;;;;;4.80;1.80;;;;;;;3.48;55.81;95732.78;5054453;28;20195;-62
2022/01/18 12:04:55;;;;;;;2.53;1.60;;;;;;;3.10;55.96;95729.28;5072263;28;20290;-64
2022/01/18 12:07:38;;;;;;;4.43;1.53;;;;;;;3.25;56.68;95734.53;5072422;28;20485;-64
2022/01/18 12:10:06;;;;;;;3.03;1.70;;;;;;;2.68;57.89;95681.53;5071454;28;20208;-65
2022/01/18 12:12:45;;;;;;;3.10;1.47;;;;;;;3.02;57.90;95679.34;5071962;28;20192;-66
2022/01/18 12:15:20;;;;;;;4.73;1.70;;;;;;;3.23;57.27;95696.06;5071278;28;20342;-60
2022/01/18 12:17:50;;;;;;;4.50;1.50;;;;;;;3.18;56.59;95689.63;5070821;28;20184;-62
2022/01/18 12:20:35;;;;;;;4.07;1.50;;;;;;;3.07;55.72;95711.84;5071761;28;20222;-62
2022/01/18 12:23:06;;;;;;;3.73;1.80;;;;;;;2.97;56.03;95705.53;5070779;28;20189;-60
2022/01/18 12:25:35;;;;;;;2.77;1.77;;;;;;;3.27;55.87;95709.38;5070288;28;20682;-61
2022/01/18 12:28:56;;;;;;;3.10;1.47;;;;;;;3.28;56.90;95681.66;5071994;28;20200;-64
2022/01/18 12:32:04;;;;;;;2.63;1.33;;;;;;;3.07;56.63;95679.19;5070419;28;20307;-62
2022/01/18 12:34:37;;;;;;;3.97;1.30;;;;;;;2.87;55.62;95702.53;5070833;28;20196;-67
2022/01/18 12:37:11;;;;;;;2.53;1.40;;;;;;;2.83;54.38;95722.81;5071794;28;20196;-66
2022/01/18 12:45:22;;;;;;;3.37;1.60;;;;;;;2.97;55.89;95690.47;5071482;28;20273;-65
2022/01/18 12:48:00;;;;;;;4.77;1.43;;;;;;;2.71;56.40;95675.56;5070429;28;20189;-65
2022/01/18 12:50:28;;;;;;;7.27;1.47;;;;;;;2.78;55.89;95671.94;5069861;28;20197;-66
2022/01/18 12:52:58;;;;;;;9.13;1.87;;;;;;;2.98;55.95;95702.13;5071810;28;20189;-65
2022/01/18 12:55:36;;;;;;;1.80;1.40;;;;;;;2.78;56.79;95674.47;5071140;28;20199;-67
2022/01/18 12:58:07;;;;;;;5.30;1.80;;;;;;;2.93;56.61;95692.25;5071573;28;20601;-65
2022/01/18 13:00:41;;;;;;;4.93;2.00;;;;;;;2.93;57.13;95671.38;5071138;28;20196;-66
2022/01/18 13:03:07;;;;;;;2.80;1.60;;;;;;;3.05;56.46;95661.63;5071796;28;20203;-65
2022/01/18 13:05:43;;;;;;;4.17;1.93;;;;;;;3.29;57.15;95662.38;5071913;28;20196;-65
2022/01/18 13:08:10;;;;;;;4.97;1.90;;;;;;;3.22;55.89;95699.47;5071205;28;20184;-67